sensor_id;sensor_type;location;lat;lon;timestamp;temperature;humidity
73643;DHT22;61938;48.652;9.292;2024-03-23T00:56:15;8.60;99.90
73643;DHT22;61938;48.652;9.292;2024-03-23T00:58:41;8.50;99.90
73643;DHT22;61938;48.652;9.292;2024-03-23T01:01:06;8.60;99.90
73643;DHT22;61938;48.652;9.292;2024-03-23T01:03:32;8.60;99.90
73643;DHT22;61938;48.652;9.292;2024-03-23T01:06:01;8.60;99.90
73643;DHT22;61938;48.652;9.292;2024-03-23T01:08:26;8.60;99.90
73643;DHT22;61938;48.652;9.292;2024-03-23T01:10:59;8.60;99.90
73643;DHT22;61938;48.652;9.292;2024-03-23T01:13:26;8.60;99.90
73643;DHT22;61938;48.652;9.292;2024-03-23T01:15:53;8.60;99.90
73643;DHT22;61938;48.652;9.292;2024-03-23T01:18:19;8.60;99.90
73643;DHT22;61938;48.652;9.292;2024-03-23T01:20:45;8.50;99.90
73643;DHT22;61938;48.652;9.292;2024-03-23T01:23:10;8.50;99.90
73643;DHT22;61938;48.652;9.292;2024-03-23T01:25:36;8.50;99.90
73643;DHT22;61938;48.652;9.292;2024-03-23T01:28:02;8.50;99.90
73643;DHT22;61938;48.652;9.292;2024-03-23T01:30:27;8.50;99.90
73643;DHT22;61938;48.652;9.292;2024-03-23T01:32:53;8.40;99.90
73643;DHT22;61938;48.652;9.292;2024-03-23T01:35:19;8.40;99.90
73643;DHT22;61938;48.652;9.292;2024-03-23T01:37:44;8.40;99.90
73643;DHT22;61938;48.652;9.292;2024-03-23T01:40:10;8.40;99.90
73643;DHT22;61938;48.652;9.292;2024-03-23T01:42:39;8.40;99.90
73643;DHT22;61938;48.652;9.292;2024-03-23T01:45:08;8.40;99.90
73643;DHT22;61938;48.652;9.292;2024-03-23T01:47:35;8.50;99.90
73643;DHT22;61938;48.652;9.292;2024-03-23T01:50:00;8.40;99.90
73643;DHT22;61938;48.652;9.292;2024-03-23T01:52:29;8.50;99.90
73643;DHT22;61938;48.652;9.292;2024-03-23T01:54:55;8.50;99.90
73643;DHT22;61938;48.652;9.292;2024-03-23T01:57:21;8.50;99.90
73643;DHT22;61938;48.652;9.292;2024-03-23T01:59:47;8.50;99.90
73643;DHT22;61938;48.652;9.292;2024-03-23T02:02:13;8.50;99.90
73643;DHT22;61938;48.652;9.292;2024-03-23T02:04:39;8.50;99.90
73643;DHT22;61938;48.652;9.292;2024-03-23T02:07:06;8.50;99.90
73643;DHT22;61938;48.652;9.292;2024-03-23T02:09:32;8.50;99.90
73643;DHT22;61938;48.652;9.292;2024-03-23T02:11:58;8.50;99.90
73643;DHT22;61938;48.652;9.292;2024-03-23T02:14:24;8.50;99.90
73643;DHT22;61938;48.652;9.292;2024-03-23T02:16:49;8.60;99.90
73643;DHT22;61938;48.652;9.292;2024-03-23T02:19:14;8.60;99.90
73643;DHT22;61938;48.652;9.292;2024-03-23T02:21:40;8.50;99.90
73643;DHT22;61938;48.652;9.292;2024-03-23T02:24:06;8.60;99.90
73643;DHT22;61938;48.652;9.292;2024-03-23T02:26:31;8.60;99.90
73643;DHT22;61938;48.652;9.292;2024-03-23T02:28:57;8.50;99.90
73643;DHT22;61938;48.652;9.292;2024-03-23T02:31:22;8.60;99.90
73643;DHT22;61938;48.652;9.292;2024-03-23T02:33:48;8.60;99.90
73643;DHT22;61938;48.652;9.292;2024-03-23T02:36:13;8.60;99.90
73643;DHT22;61938;48.652;9.292;2024-03-23T02:38:39;8.60;99.90
73643;DHT22;61938;48.652;9.292;2024-03-23T02:41:05;8.60;99.90
73643;DHT22;61938;48.652;9.292;2024-03-23T02:43:31;8.60;99.90
73643;DHT22;61938;48.652;9.292;2024-03-23T02:45:56;8.60;99.90
73643;DHT22;61938;48.652;9.292;2024-03-23T02:48:22;8.60;99.90
73643;DHT22;61938;48.652;9.292;2024-03-23T02:50:48;8.60;99.90
73643;DHT22;61938;48.652;9.292;2024-03-23T02:53:14;8.70;99.90
73643;DHT22;61938;48.652;9.292;2024-03-23T02:55:39;8.70;99.90
73643;DHT22;61938;48.652;9.292;2024-03-23T02:58:05;8.70;99.90
73643;DHT22;61938;48.652;9.292;2024-03-23T03:00:30;8.70;99.90
73643;DHT22;61938;48.652;9.292;2024-03-23T03:02:56;8.70;99.90
73643;DHT22;61938;48.652;9.292;2024-03-23T03:05:22;8.70;99.90
73643;DHT22;61938;48.652;9.292;2024-03-23T03:07:47;8.80;99.90
73643;DHT22;61938;48.652;9.292;2024-03-23T03:10:13;8.80;99.90
73643;DHT22;61938;48.652;9.292;2024-03-23T03:12:38;8.80;99.90
73643;DHT22;61938;48.652;9.292;2024-03-23T03:15:04;8.90;99.90
73643;DHT22;61938;48.652;9.292;2024-03-23T03:17:30;8.80;99.90
73643;DHT22;61938;48.652;9.292;2024-03-23T03:19:56;8.80;99.90
73643;DHT22;61938;48.652;9.292;2024-03-23T03:22:22;8.90;99.90
73643;DHT22;61938;48.652;9.292;2024-03-23T03:24:48;8.90;99.90
73643;DHT22;61938;48.652;9.292;2024-03-23T03:27:13;8.90;99.90
73643;DHT22;61938;48.652;9.292;2024-03-23T03:29:39;9.00;99.90
73643;DHT22;61938;48.652;9.292;2024-03-23T03:32:05;9.00;99.90
73643;DHT22;61938;48.652;9.292;2024-03-23T03:34:30;9.00;99.90
73643;DHT22;61938;48.652;9.292;2024-03-23T03:36:56;9.00;99.90
73643;DHT22;61938;48.652;9.292;2024-03-23T03:39:22;9.10;99.90
73643;DHT22;61938;48.652;9.292;2024-03-23T03:41:48;9.10;99.90
73643;DHT22;61938;48.652;9.292;2024-03-23T03:44:14;9.10;99.90
73643;DHT22;61938;48.652;9.292;2024-03-23T03:46:39;9.10;99.90
73643;DHT22;61938;48.652;9.292;2024-03-23T03:49:05;9.10;99.90
73643;DHT22;61938;48.652;9.292;2024-03-23T03:51:31;9.10;99.90
73643;DHT22;61938;48.652;9.292;2024-03-23T03:53:56;9.20;99.90
73643;DHT22;61938;48.652;9.292;2024-03-23T03:56:22;9.20;99.90
73643;DHT22;61938;48.652;9.292;2024-03-23T03:58:48;9.20;99.90
73643;DHT22;61938;48.652;9.292;2024-03-23T04:01:14;9.20;99.90
73643;DHT22;61938;48.652;9.292;2024-03-23T04:03:39;9.20;99.90
73643;DHT22;61938;48.652;9.292;2024-03-23T04:06:09;9.20;99.90
73643;DHT22;61938;48.652;9.292;2024-03-23T04:08:34;9.30;99.90
73643;DHT22;61938;48.652;9.292;2024-03-23T04:11:00;9.30;99.90
73643;DHT22;61938;48.652;9.292;2024-03-23T04:13:25;9.30;99.90
73643;DHT22;61938;48.652;9.292;2024-03-23T04:15:55;9.30;99.90
73643;DHT22;61938;48.652;9.292;2024-03-23T04:18:21;9.30;99.90
73643;DHT22;61938;48.652;9.292;2024-03-23T04:20:47;9.30;99.90
73643;DHT22;61938;48.652;9.292;2024-03-23T04:23:12;9.30;99.90
73643;DHT22;61938;48.652;9.292;2024-03-23T04:25:38;9.30;99.90
73643;DHT22;61938;48.652;9.292;2024-03-23T04:28:04;9.40;99.90
73643;DHT22;61938;48.652;9.292;2024-03-23T04:30:30;9.40;99.90
73643;DHT22;61938;48.652;9.292;2024-03-23T04:32:55;9.40;99.90
73643;DHT22;61938;48.652;9.292;2024-03-23T04:35:22;9.40;99.90
73643;DHT22;61938;48.652;9.292;2024-03-23T04:37:50;9.40;99.90
73643;DHT22;61938;48.652;9.292;2024-03-23T04:40:17;9.40;99.90
73643;DHT22;61938;48.652;9.292;2024-03-23T04:42:43;9.40;99.90
73643;DHT22;61938;48.652;9.292;2024-03-23T04:45:09;9.40;99.90
73643;DHT22;61938;48.652;9.292;2024-03-23T04:47:36;9.40;99.90
73643;DHT22;61938;48.652;9.292;2024-03-23T04:50:03;9.40;99.90
73643;DHT22;61938;48.652;9.292;2024-03-23T04:52:30;9.50;99.90
73643;DHT22;61938;48.652;9.292;2024-03-23T04:54:56;9.40;99.90
73643;DHT22;61938;48.652;9.292;2024-03-23T04:57:21;9.50;99.90
73643;DHT22;61938;48.652;9.292;2024-03-23T04:59:47;9.40;99.90
73643;DHT22;61938;48.652;9.292;2024-03-23T05:02:13;9.50;99.90
73643;DHT22;61938;48.652;9.292;2024-03-23T05:04:39;9.50;99.90
73643;DHT22;61938;48.652;9.292;2024-03-23T05:07:06;9.50;99.90
73643;DHT22;61938;48.652;9.292;2024-03-23T05:09:31;9.50;99.90
73643;DHT22;61938;48.652;9.292;2024-03-23T05:12:01;9.50;99.90
73643;DHT22;61938;48.652;9.292;2024-03-23T05:14:27;9.50;99.90
73643;DHT22;61938;48.652;9.292;2024-03-23T05:16:53;9.60;99.90
73643;DHT22;61938;48.652;9.292;2024-03-23T05:19:19;9.60;99.90
73643;DHT22;61938;48.652;9.292;2024-03-23T05:21:44;9.70;99.90
73643;DHT22;61938;48.652;9.292;2024-03-23T05:24:11;9.70;99.90
73643;DHT22;61938;48.652;9.292;2024-03-23T05:26:37;9.70;99.90
73643;DHT22;61938;48.652;9.292;2024-03-23T05:29:03;9.70;99.90
73643;DHT22;61938;48.652;9.292;2024-03-23T05:31:30;9.80;99.90
73643;DHT22;61938;48.652;9.292;2024-03-23T05:33:56;9.80;99.90
73643;DHT22;61938;48.652;9.292;2024-03-23T05:36:22;9.80;99.90
73643;DHT22;61938;48.652;9.292;2024-03-23T05:38:49;9.80;99.90
73643;DHT22;61938;48.652;9.292;2024-03-23T05:41:14;9.80;99.90
73643;DHT22;61938;48.652;9.292;2024-03-23T05:43:40;9.80;99.90
73643;DHT22;61938;48.652;9.292;2024-03-23T05:46:05;9.80;99.90
73643;DHT22;61938;48.652;9.292;2024-03-23T05:48:31;9.90;99.90
73643;DHT22;61938;48.652;9.292;2024-03-23T05:50:57;9.90;99.90
73643;DHT22;61938;48.652;9.292;2024-03-23T05:53:24;9.90;99.90
73643;DHT22;61938;48.652;9.292;2024-03-23T05:55:50;9.90;99.90
73643;DHT22;61938;48.652;9.292;2024-03-23T05:58:16;9.90;99.90
73643;DHT22;61938;48.652;9.292;2024-03-23T06:00:43;9.90;99.90
73643;DHT22;61938;48.652;9.292;2024-03-23T06:03:09;9.90;99.90
73643;DHT22;61938;48.652;9.292;2024-03-23T06:05:35;9.90;99.90
73643;DHT22;61938;48.652;9.292;2024-03-23T06:08:01;9.90;99.90
73643;DHT22;61938;48.652;9.292;2024-03-23T06:10:27;9.90;99.90
73643;DHT22;61938;48.652;9.292;2024-03-23T06:12:53;9.90;99.90
73643;DHT22;61938;48.652;9.292;2024-03-23T06:15:19;9.90;99.90
73643;DHT22;61938;48.652;9.292;2024-03-23T06:17:44;9.90;99.90
73643;DHT22;61938;48.652;9.292;2024-03-23T06:20:10;9.90;99.90
73643;DHT22;61938;48.652;9.292;2024-03-23T06:22:36;9.90;99.90
73643;DHT22;61938;48.652;9.292;2024-03-23T06:25:02;9.90;99.90
73643;DHT22;61938;48.652;9.292;2024-03-23T06:27:28;9.90;99.90
73643;DHT22;61938;48.652;9.292;2024-03-23T06:29:53;9.80;99.90
73643;DHT22;61938;48.652;9.292;2024-03-23T06:32:20;9.80;99.90
73643;DHT22;61938;48.652;9.292;2024-03-23T06:34:46;9.80;99.90
73643;DHT22;61938;48.652;9.292;2024-03-23T06:37:11;9.80;99.90
73643;DHT22;61938;48.652;9.292;2024-03-23T06:39:38;9.70;99.90
73643;DHT22;61938;48.652;9.292;2024-03-23T06:42:04;9.70;99.90
73643;DHT22;61938;48.652;9.292;2024-03-23T06:44:29;9.70;99.90
73643;DHT22;61938;48.652;9.292;2024-03-23T06:46:55;9.70;99.90
73643;DHT22;61938;48.652;9.292;2024-03-23T06:49:22;9.70;99.90
73643;DHT22;61938;48.652;9.292;2024-03-23T06:51:47;9.60;99.90
73643;DHT22;61938;48.652;9.292;2024-03-23T06:54:13;9.60;99.90
73643;DHT22;61938;48.652;9.292;2024-03-23T06:56:39;9.60;99.90
73643;DHT22;61938;48.652;9.292;2024-03-23T06:59:04;9.60;99.90
73643;DHT22;61938;48.652;9.292;2024-03-23T07:01:30;9.60;99.90
73643;DHT22;61938;48.652;9.292;2024-03-23T07:03:55;9.60;99.90
73643;DHT22;61938;48.652;9.292;2024-03-23T07:06:21;9.60;99.90
73643;DHT22;61938;48.652;9.292;2024-03-23T07:08:47;9.60;99.90
73643;DHT22;61938;48.652;9.292;2024-03-23T07:11:18;9.50;99.90
73643;DHT22;61938;48.652;9.292;2024-03-23T07:13:43;9.50;99.90
73643;DHT22;61938;48.652;9.292;2024-03-23T07:16:09;9.50;99.90
73643;DHT22;61938;48.652;9.292;2024-03-23T07:18:34;9.50;99.90
73643;DHT22;61938;48.652;9.292;2024-03-23T07:21:00;9.50;99.90
73643;DHT22;61938;48.652;9.292;2024-03-23T07:23:25;9.40;99.90
73643;DHT22;61938;48.652;9.292;2024-03-23T07:26:04;9.50;99.90
73643;DHT22;61938;48.652;9.292;2024-03-23T07:28:31;9.50;99.90
73643;DHT22;61938;48.652;9.292;2024-03-23T07:31:08;9.40;99.90
73643;DHT22;61938;48.652;9.292;2024-03-23T07:33:44;9.40;99.90
73643;DHT22;61938;48.652;9.292;2024-03-23T07:36:09;9.40;99.90
73643;DHT22;61938;48.652;9.292;2024-03-23T07:38:35;9.40;99.90
73643;DHT22;61938;48.652;9.292;2024-03-23T07:41:08;9.40;99.90
73643;DHT22;61938;48.652;9.292;2024-03-23T07:43:35;9.50;99.90
73643;DHT22;61938;48.652;9.292;2024-03-23T07:46:00;9.40;99.90
73643;DHT22;61938;48.652;9.292;2024-03-23T07:48:27;9.40;99.90
73643;DHT22;61938;48.652;9.292;2024-03-23T07:51:16;9.40;99.90
73643;DHT22;61938;48.652;9.292;2024-03-23T07:53:43;9.40;99.90
73643;DHT22;61938;48.652;9.292;2024-03-23T07:56:10;9.40;99.90
73643;DHT22;61938;48.652;9.292;2024-03-23T07:58:36;9.40;99.90
73643;DHT22;61938;48.652;9.292;2024-03-23T08:01:06;9.40;99.90
73643;DHT22;61938;48.652;9.292;2024-03-23T08:03:37;9.40;99.90
73643;DHT22;61938;48.652;9.292;2024-03-23T08:06:15;9.40;99.90
73643;DHT22;61938;48.652;9.292;2024-03-23T08:08:43;9.40;99.90
73643;DHT22;61938;48.652;9.292;2024-03-23T08:11:08;9.40;99.90
73643;DHT22;61938;48.652;9.292;2024-03-23T08:13:35;9.40;99.90
73643;DHT22;61938;48.652;9.292;2024-03-23T08:16:02;9.40;99.90
73643;DHT22;61938;48.652;9.292;2024-03-23T08:18:28;9.40;99.90
73643;DHT22;61938;48.652;9.292;2024-03-23T08:21:01;9.30;99.90
73643;DHT22;61938;48.652;9.292;2024-03-23T08:23:28;9.40;99.90
73643;DHT22;61938;48.652;9.292;2024-03-23T08:25:58;9.30;99.90
73643;DHT22;61938;48.652;9.292;2024-03-23T08:28:24;9.40;99.90
73643;DHT22;61938;48.652;9.292;2024-03-23T08:30:50;9.30;99.90
73643;DHT22;61938;48.652;9.292;2024-03-23T08:33:16;9.30;99.90
73643;DHT22;61938;48.652;9.292;2024-03-23T08:35:41;9.30;99.90
73643;DHT22;61938;48.652;9.292;2024-03-23T08:38:07;9.30;99.90
73643;DHT22;61938;48.652;9.292;2024-03-23T08:40:33;9.30;99.90
73643;DHT22;61938;48.652;9.292;2024-03-23T08:42:58;9.30;99.90
73643;DHT22;61938;48.652;9.292;2024-03-23T08:45:26;9.40;99.90
73643;DHT22;61938;48.652;9.292;2024-03-23T08:47:52;9.40;99.90
73643;DHT22;61938;48.652;9.292;2024-03-23T08:50:18;9.40;99.90
73643;DHT22;61938;48.652;9.292;2024-03-23T08:52:44;9.90;99.90
73643;DHT22;61938;48.652;9.292;2024-03-23T08:55:09;9.40;99.90
73643;DHT22;61938;48.652;9.292;2024-03-23T08:57:35;9.30;99.90
73643;DHT22;61938;48.652;9.292;2024-03-23T09:00:02;9.30;99.90
73643;DHT22;61938;48.652;9.292;2024-03-23T09:02:27;9.30;99.90
73643;DHT22;61938;48.652;9.292;2024-03-23T09:04:53;9.30;99.90
73643;DHT22;61938;48.652;9.292;2024-03-23T09:07:18;9.30;99.90
73643;DHT22;61938;48.652;9.292;2024-03-23T09:09:44;9.30;99.90
73643;DHT22;61938;48.652;9.292;2024-03-23T09:12:09;9.20;99.90
73643;DHT22;61938;48.652;9.292;2024-03-23T09:14:35;9.20;99.90
73643;DHT22;61938;48.652;9.292;2024-03-23T09:17:00;9.20;99.90
73643;DHT22;61938;48.652;9.292;2024-03-23T09:19:29;9.20;99.90
73643;DHT22;61938;48.652;9.292;2024-03-23T09:21:55;9.20;99.90
73643;DHT22;61938;48.652;9.292;2024-03-23T09:24:20;9.20;99.90
73643;DHT22;61938;48.652;9.292;2024-03-23T09:26:46;9.20;99.90
73643;DHT22;61938;48.652;9.292;2024-03-23T09:29:12;9.10;99.90
73643;DHT22;61938;48.652;9.292;2024-03-23T09:31:37;9.10;99.90
73643;DHT22;61938;48.652;9.292;2024-03-23T09:34:03;9.10;99.90
73643;DHT22;61938;48.652;9.292;2024-03-23T09:36:29;9.10;99.90
73643;DHT22;61938;48.652;9.292;2024-03-23T09:38:55;9.10;99.90
73643;DHT22;61938;48.652;9.292;2024-03-23T09:41:20;9.10;99.90
73643;DHT22;61938;48.652;9.292;2024-03-23T09:43:46;9.20;99.90
73643;DHT22;61938;48.652;9.292;2024-03-23T09:46:14;9.20;99.90
73643;DHT22;61938;48.652;9.292;2024-03-23T09:48:39;9.30;99.90
73643;DHT22;61938;48.652;9.292;2024-03-23T09:51:05;9.30;99.90
73643;DHT22;61938;48.652;9.292;2024-03-23T09:53:33;9.30;99.90
73643;DHT22;61938;48.652;9.292;2024-03-23T09:55:59;9.40;99.90
73643;DHT22;61938;48.652;9.292;2024-03-23T09:58:24;9.50;99.90
73643;DHT22;61938;48.652;9.292;2024-03-23T10:00:50;9.50;99.90
73643;DHT22;61938;48.652;9.292;2024-03-23T10:03:18;9.60;99.90
73643;DHT22;61938;48.652;9.292;2024-03-23T10:05:44;9.60;99.90
73643;DHT22;61938;48.652;9.292;2024-03-23T10:10:45;9.70;99.90
73643;DHT22;61938;48.652;9.292;2024-03-23T10:13:11;9.60;99.90
73643;DHT22;61938;48.652;9.292;2024-03-23T10:15:55;9.60;99.90
73643;DHT22;61938;48.652;9.292;2024-03-23T10:18:20;9.60;99.90
73643;DHT22;61938;48.652;9.292;2024-03-23T10:21:13;9.60;99.90
73643;DHT22;61938;48.652;9.292;2024-03-23T10:23:42;9.70;99.90
73643;DHT22;61938;48.652;9.292;2024-03-23T10:26:19;9.70;99.90
73643;DHT22;61938;48.652;9.292;2024-03-23T10:29:00;9.80;99.90
73643;DHT22;61938;48.652;9.292;2024-03-23T10:31:31;9.80;99.90
73643;DHT22;61938;48.652;9.292;2024-03-23T10:33:57;9.90;99.90
73643;DHT22;61938;48.652;9.292;2024-03-23T10:36:23;11.30;99.90
73643;DHT22;61938;48.652;9.292;2024-03-23T10:38:50;10.10;99.90
73643;DHT22;61938;48.652;9.292;2024-03-23T10:41:17;10.20;99.90
73643;DHT22;61938;48.652;9.292;2024-03-23T10:43:44;10.20;99.90
73643;DHT22;61938;48.652;9.292;2024-03-23T10:46:10;10.20;99.90
73643;DHT22;61938;48.652;9.292;2024-03-23T10:48:36;10.30;99.90
73643;DHT22;61938;48.652;9.292;2024-03-23T10:51:02;10.30;99.90
73643;DHT22;61938;48.652;9.292;2024-03-23T10:53:28;10.30;99.90
73643;DHT22;61938;48.652;9.292;2024-03-23T10:55:55;10.30;99.90
73643;DHT22;61938;48.652;9.292;2024-03-23T10:58:41;10.30;99.90
73643;DHT22;61938;48.652;9.292;2024-03-23T11:01:07;10.30;99.90
73643;DHT22;61938;48.652;9.292;2024-03-23T11:03:37;10.20;99.90
73643;DHT22;61938;48.652;9.292;2024-03-23T11:06:04;10.20;99.90
73643;DHT22;61938;48.652;9.292;2024-03-23T11:08:37;10.10;99.90
73643;DHT22;61938;48.652;9.292;2024-03-23T11:13:40;9.90;99.90
73643;DHT22;61938;48.652;9.292;2024-03-23T11:16:25;9.70;99.90
73643;DHT22;61938;48.652;9.292;2024-03-23T11:21:59;9.40;99.90
73643;DHT22;61938;48.652;9.292;2024-03-23T11:24:25;9.40;99.90
73643;DHT22;61938;48.652;9.292;2024-03-23T11:26:50;9.30;99.90
73643;DHT22;61938;48.652;9.292;2024-03-23T11:29:19;9.20;99.90
73643;DHT22;61938;48.652;9.292;2024-03-23T11:31:48;9.20;99.90
73643;DHT22;61938;48.652;9.292;2024-03-23T11:34:15;9.10;99.90
73643;DHT22;61938;48.652;9.292;2024-03-23T11:36:42;9.10;99.90
73643;DHT22;61938;48.652;9.292;2024-03-23T11:39:14;9.00;99.90
73643;DHT22;61938;48.652;9.292;2024-03-23T11:41:48;9.00;99.90
73643;DHT22;61938;48.652;9.292;2024-03-23T11:44:16;8.90;99.90
73643;DHT22;61938;48.652;9.292;2024-03-23T11:46:42;8.90;99.90
73643;DHT22;61938;48.652;9.292;2024-03-23T11:49:26;8.80;99.90
73643;DHT22;61938;48.652;9.292;2024-03-23T11:51:52;8.80;99.90
73643;DHT22;61938;48.652;9.292;2024-03-23T11:54:25;8.70;99.90
73643;DHT22;61938;48.652;9.292;2024-03-23T11:56:58;8.70;99.90
73643;DHT22;61938;48.652;9.292;2024-03-23T11:59:37;8.70;99.90
73643;DHT22;61938;48.652;9.292;2024-03-23T12:02:07;8.60;99.90
73643;DHT22;61938;48.652;9.292;2024-03-23T12:04:33;8.60;99.90
73643;DHT22;61938;48.652;9.292;2024-03-23T12:07:17;8.60;99.90
73643;DHT22;61938;48.652;9.292;2024-03-23T12:10:04;8.50;99.90
73643;DHT22;61938;48.652;9.292;2024-03-23T12:12:29;8.50;99.90
73643;DHT22;61938;48.652;9.292;2024-03-23T12:15:06;8.40;99.90
73643;DHT22;61938;48.652;9.292;2024-03-23T12:17:32;8.50;99.90
73643;DHT22;61938;48.652;9.292;2024-03-23T12:19:58;8.50;99.90
73643;DHT22;61938;48.652;9.292;2024-03-23T12:22:24;8.50;99.90
73643;DHT22;61938;48.652;9.292;2024-03-23T12:24:50;8.50;99.90
73643;DHT22;61938;48.652;9.292;2024-03-23T12:27:16;8.50;99.90
73643;DHT22;61938;48.652;9.292;2024-03-23T12:29:42;8.50;99.90
73643;DHT22;61938;48.652;9.292;2024-03-23T12:32:11;10.00;99.90
73643;DHT22;61938;48.652;9.292;2024-03-23T12:34:37;8.60;99.90
73643;DHT22;61938;48.652;9.292;2024-03-23T12:37:02;8.60;99.90
73643;DHT22;61938;48.652;9.292;2024-03-23T12:39:28;8.40;99.90
73643;DHT22;61938;48.652;9.292;2024-03-23T12:41:53;8.60;99.90
73643;DHT22;61938;48.652;9.292;2024-03-23T12:44:19;8.60;99.90
73643;DHT22;61938;48.652;9.292;2024-03-23T12:46:45;8.60;99.90
73643;DHT22;61938;48.652;9.292;2024-03-23T12:49:11;8.50;99.90
73643;DHT22;61938;48.652;9.292;2024-03-23T12:51:37;8.50;99.90
73643;DHT22;61938;48.652;9.292;2024-03-23T12:54:02;8.50;99.90
73643;DHT22;61938;48.652;9.292;2024-03-23T12:56:28;8.50;99.90
73643;DHT22;61938;48.652;9.292;2024-03-23T12:58:55;9.20;99.90
73643;DHT22;61938;48.652;9.292;2024-03-23T13:01:25;8.50;99.90
73643;DHT22;61938;48.652;9.292;2024-03-23T13:03:50;8.50;99.90
73643;DHT22;61938;48.652;9.292;2024-03-23T13:06:17;8.50;99.90
73643;DHT22;61938;48.652;9.292;2024-03-23T13:08:46;8.50;99.90
73643;DHT22;61938;48.652;9.292;2024-03-23T13:11:13;8.50;99.90
73643;DHT22;61938;48.652;9.292;2024-03-23T13:13:40;8.50;99.90
73643;DHT22;61938;48.652;9.292;2024-03-23T13:16:05;8.50;99.90
73643;DHT22;61938;48.652;9.292;2024-03-23T13:18:31;8.50;99.90
73643;DHT22;61938;48.652;9.292;2024-03-23T13:20:57;8.40;99.90
73643;DHT22;61938;48.652;9.292;2024-03-23T13:23:23;8.50;99.90
73643;DHT22;61938;48.652;9.292;2024-03-23T13:25:53;8.50;99.90
73643;DHT22;61938;48.652;9.292;2024-03-23T13:28:20;8.50;99.90
73643;DHT22;61938;48.652;9.292;2024-03-23T13:30:56;8.40;99.90
73643;DHT22;61938;48.652;9.292;2024-03-23T13:33:22;8.40;99.90
73643;DHT22;61938;48.652;9.292;2024-03-23T13:38:16;8.40;99.90
73643;DHT22;61938;48.652;9.292;2024-03-23T13:41:01;8.30;99.90
73643;DHT22;61938;48.652;9.292;2024-03-23T13:43:27;8.30;99.90
73643;DHT22;61938;48.652;9.292;2024-03-23T13:45:55;8.30;99.90
73643;DHT22;61938;48.652;9.292;2024-03-23T13:48:25;8.20;99.90
73643;DHT22;61938;48.652;9.292;2024-03-23T13:50:57;8.20;99.90
73643;DHT22;61938;48.652;9.292;2024-03-23T13:53:23;8.20;99.90
73643;DHT22;61938;48.652;9.292;2024-03-23T13:55:49;8.30;99.90
73643;DHT22;61938;48.652;9.292;2024-03-23T13:58:15;8.30;99.90
73643;DHT22;61938;48.652;9.292;2024-03-23T14:00:41;8.30;99.90
73643;DHT22;61938;48.652;9.292;2024-03-23T14:03:11;8.40;99.90
73643;DHT22;61938;48.652;9.292;2024-03-23T14:05:37;8.40;99.90
73643;DHT22;61938;48.652;9.292;2024-03-23T14:08:10;8.50;99.90
73643;DHT22;61938;48.652;9.292;2024-03-23T14:10:36;8.50;99.90
73643;DHT22;61938;48.652;9.292;2024-03-23T14:13:02;8.60;99.90
73643;DHT22;61938;48.652;9.292;2024-03-23T14:15:31;8.60;99.90
73643;DHT22;61938;48.652;9.292;2024-03-23T14:17:57;8.70;99.90
73643;DHT22;61938;48.652;9.292;2024-03-23T14:20:23;8.70;99.90
73643;DHT22;61938;48.652;9.292;2024-03-23T14:22:49;8.70;99.90
73643;DHT22;61938;48.652;9.292;2024-03-23T14:25:15;8.70;99.90
73643;DHT22;61938;48.652;9.292;2024-03-23T14:27:41;8.70;99.90
73643;DHT22;61938;48.652;9.292;2024-03-23T14:30:07;8.60;99.90
73643;DHT22;61938;48.652;9.292;2024-03-23T14:32:32;8.70;99.90
73643;DHT22;61938;48.652;9.292;2024-03-23T14:35:03;8.70;99.90
73643;DHT22;61938;48.652;9.292;2024-03-23T14:37:29;8.60;99.90
73643;DHT22;61938;48.652;9.292;2024-03-23T14:39:57;8.60;99.90
73643;DHT22;61938;48.652;9.292;2024-03-23T14:42:23;8.60;99.90
73643;DHT22;61938;48.652;9.292;2024-03-23T14:44:50;8.50;99.90
73643;DHT22;61938;48.652;9.292;2024-03-23T14:47:15;8.50;99.90
73643;DHT22;61938;48.652;9.292;2024-03-23T14:49:43;8.50;99.90
73643;DHT22;61938;48.652;9.292;2024-03-23T14:52:15;8.50;99.90
73643;DHT22;61938;48.652;9.292;2024-03-23T14:54:41;8.50;99.90
73643;DHT22;61938;48.652;9.292;2024-03-23T14:57:06;8.50;99.90
73643;DHT22;61938;48.652;9.292;2024-03-23T14:59:34;8.50;99.90
73643;DHT22;61938;48.652;9.292;2024-03-23T15:02:00;8.50;99.90
73643;DHT22;61938;48.652;9.292;2024-03-23T15:04:25;8.60;99.90
73643;DHT22;61938;48.652;9.292;2024-03-23T15:06:51;8.60;99.90
73643;DHT22;61938;48.652;9.292;2024-03-23T15:09:16;8.60;99.90
73643;DHT22;61938;48.652;9.292;2024-03-23T15:11:42;8.60;99.90
73643;DHT22;61938;48.652;9.292;2024-03-23T15:14:08;8.50;99.90
73643;DHT22;61938;48.652;9.292;2024-03-23T15:16:33;8.50;99.90
73643;DHT22;61938;48.652;9.292;2024-03-23T15:18:59;8.40;99.90
73643;DHT22;61938;48.652;9.292;2024-03-23T15:21:25;8.40;99.90
73643;DHT22;61938;48.652;9.292;2024-03-23T15:23:50;8.30;99.90
73643;DHT22;61938;48.652;9.292;2024-03-23T15:26:16;8.30;99.90
73643;DHT22;61938;48.652;9.292;2024-03-23T15:28:42;8.30;99.90
73643;DHT22;61938;48.652;9.292;2024-03-23T15:31:30;8.30;99.90
73643;DHT22;61938;48.652;9.292;2024-03-23T15:33:56;8.30;99.90
73643;DHT22;61938;48.652;9.292;2024-03-23T15:36:21;8.30;99.90
73643;DHT22;61938;48.652;9.292;2024-03-23T15:38:47;8.30;99.90
73643;DHT22;61938;48.652;9.292;2024-03-23T15:41:14;8.30;99.90
73643;DHT22;61938;48.652;9.292;2024-03-23T15:43:40;8.30;99.90
73643;DHT22;61938;48.652;9.292;2024-03-23T15:46:06;8.30;99.90
73643;DHT22;61938;48.652;9.292;2024-03-23T15:48:33;8.30;99.90
73643;DHT22;61938;48.652;9.292;2024-03-23T15:51:01;8.30;99.90
73643;DHT22;61938;48.652;9.292;2024-03-23T15:53:27;8.30;99.90
73643;DHT22;61938;48.652;9.292;2024-03-23T15:56:00;8.20;99.90
73643;DHT22;61938;48.652;9.292;2024-03-23T15:58:27;8.30;99.90
73643;DHT22;61938;48.652;9.292;2024-03-23T16:01:03;8.20;99.90
73643;DHT22;61938;48.652;9.292;2024-03-23T16:03:29;8.20;99.90
73643;DHT22;61938;48.652;9.292;2024-03-23T16:06:00;8.20;99.90
73643;DHT22;61938;48.652;9.292;2024-03-23T16:08:26;8.20;99.90
73643;DHT22;61938;48.652;9.292;2024-03-23T16:10:53;8.10;99.90
73643;DHT22;61938;48.652;9.292;2024-03-23T16:13:19;8.10;99.90
73643;DHT22;61938;48.652;9.292;2024-03-23T16:15:45;8.10;99.90
73643;DHT22;61938;48.652;9.292;2024-03-23T16:18:11;8.00;99.90
73643;DHT22;61938;48.652;9.292;2024-03-23T16:20:36;8.00;99.90
73643;DHT22;61938;48.652;9.292;2024-03-23T16:23:05;8.00;99.90
73643;DHT22;61938;48.652;9.292;2024-03-23T16:25:31;8.00;99.90
73643;DHT22;61938;48.652;9.292;2024-03-23T16:27:56;8.00;99.90
73643;DHT22;61938;48.652;9.292;2024-03-23T16:30:22;8.00;99.90
73643;DHT22;61938;48.652;9.292;2024-03-23T16:32:48;7.90;99.90
73643;DHT22;61938;48.652;9.292;2024-03-23T16:35:14;7.90;99.90
73643;DHT22;61938;48.652;9.292;2024-03-23T16:37:40;7.90;99.90
73643;DHT22;61938;48.652;9.292;2024-03-23T16:40:07;7.80;99.90
73643;DHT22;61938;48.652;9.292;2024-03-23T16:42:37;7.80;99.90
73643;DHT22;61938;48.652;9.292;2024-03-23T16:45:03;7.80;99.90
73643;DHT22;61938;48.652;9.292;2024-03-23T16:47:29;7.70;99.90
73643;DHT22;61938;48.652;9.292;2024-03-23T16:49:54;7.70;99.90